Rome, Pennsylvania
Current Conditions -  °F | °C
As of 12:53 PM on Saturday 20 Dec 2014 (Local Time) from KBGM Reporting Station
Haze Haze  
Wind Chill: 19°   Ceiling: 1700
Heat Index: 25°   Visibility: 6mi
Dew Point: 20°   Wind: 5mph
Humidity: 81%   Direction: 340°NNW
Pressure: 30.18"   Gusts: NA
Location:  41.86°N, 76.34°W
Report Text: KBGM 201753Z 34004KT 6SM HZ OVC017 M04/M07 A3018 RMK AO2 SNB11E31 SLP244 P0000 60000 T10391067 11033 21044 58008
Loading
Personal Weather Stations






























Interactive Weather Map New forecast layout! Learn more

10-Day Weather Forecast

Advertisements
Track Severe Weather on mobile